Time;durP1;ratioP1;P1;durP2;ratioP2;P2;SDS_P1;SDS_P2;PMS_P1;PMS_P2;Temp;Humidity;BMP_temperature;BMP_pressure;BME280_temperature;BME280_humidity;BME280_pressure;Samples;Min_cycle;Max_cycle;Signal;HPM_P1;HPM_P2
2022/03/10 00:00:29;;;;;;;17.83;16.05;;;;;;;2.80;54.59;99450.13;5006564;28;102816;-68
2022/03/10 00:02:57;;;;;;;19.92;17.60;;;;;;;3.08;53.34;99457.13;5012858;27;104045;-68
2022/03/10 00:05:25;;;;;;;22.83;19.70;;;;;;;2.69;54.32;99452.19;5006566;28;103111;-68
2022/03/10 00:07:54;;;;;;;21.05;18.83;;;;;;;2.58;55.45;99462.06;5007614;27;103054;-68
2022/03/10 00:10:22;;;;;;;21.00;18.77;;;;;;;2.82;54.34;99455.28;5001593;28;103846;-68
2022/03/10 00:12:52;;;;;;;22.45;19.42;;;;;;;2.64;53.82;99464.50;5007797;28;104603;-68
2022/03/10 00:15:22;;;;;;;21.73;19.20;;;;;;;2.53;54.83;99470.91;5005583;28;102995;-68
2022/03/10 00:17:52;;;;;;;20.88;18.50;;;;;;;2.61;54.54;99469.78;5005312;28;102725;-68
2022/03/10 00:20:20;;;;;;;21.80;18.90;;;;;;;2.64;54.63;99467.09;5005619;28;103733;-68
2022/03/10 00:22:50;;;;;;;22.33;19.88;;;;;;;2.30;55.52;99468.94;5001174;27;103603;-68
2022/03/10 00:25:18;;;;;;;24.02;19.17;;;;;;;2.58;54.78;99472.50;5004344;28;104117;-66
2022/03/10 00:27:47;;;;;;;20.40;17.98;;;;;;;2.79;54.22;99469.28;5001710;28;103047;-67
2022/03/10 00:30:16;;;;;;;18.45;16.55;;;;;;;2.98;53.45;99477.41;5005399;28;103966;-67
2022/03/10 00:32:49;;;;;;;20.38;18.17;;;;;;;2.78;54.58;99475.38;4999091;28;104376;-66
2022/03/10 00:35:20;;;;;;;19.60;17.58;;;;;;;2.88;54.11;99474.25;5006632;27;102989;-67
2022/03/10 00:37:56;;;;;;;21.65;19.35;;;;;;;2.65;54.69;99481.88;5005339;28;102961;-66
2022/03/10 00:40:25;;;;;;;20.98;18.27;;;;;;;2.83;54.31;99491.78;4999623;28;102734;-66
2022/03/10 00:42:53;;;;;;;17.63;15.85;;;;;;;2.89;54.69;99488.16;5013668;27;103191;-69
2022/03/10 00:45:22;;;;;;;17.63;15.77;;;;;;;3.00;53.87;99491.31;5011940;28;103177;-68
2022/03/10 00:47:52;;;;;;;17.38;15.55;;;;;;;3.09;53.54;99490.19;5009403;28;102707;-67
2022/03/10 00:50:23;;;;;;;22.10;19.75;;;;;;;2.36;55.82;99494.00;5014092;27;102689;-66
2022/03/10 00:52:53;;;;;;;22.03;19.70;;;;;;;2.61;55.00;99495.06;5012999;27;104201;-68
2022/03/10 00:55:24;;;;;;;22.25;19.95;;;;;;;2.26;56.35;99496.84;5012083;28;104148;-68
2022/03/10 00:57:52;;;;;;;21.48;19.17;;;;;;;2.48;55.93;99489.31;5009516;28;103856;-66
2022/03/10 01:00:21;;;;;;;19.73;17.52;;;;;;;2.62;55.41;99486.31;5011562;28;104226;-67
2022/03/10 01:02:50;;;;;;;24.80;20.65;;;;;;;2.42;55.74;99489.47;5006042;28;104377;-68
2022/03/10 01:05:18;;;;;;;22.27;19.47;;;;;;;2.47;55.63;99487.56;5013844;28;103680;-66
2022/03/10 01:07:47;;;;;;;22.55;19.95;;;;;;;2.28;56.88;99486.38;5013543;27;102633;-66
2022/03/10 01:10:17;;;;;;;22.77;19.93;;;;;;;2.24;57.25;99484.75;5011301;27;103898;-67
2022/03/10 01:12:46;;;;;;;21.70;19.40;;;;;;;2.25;56.95;99481.22;5014287;28;103212;-68
2022/03/10 01:15:15;;;;;;;20.88;18.67;;;;;;;2.10;57.86;99481.66;5016572;28;103530;-68
2022/03/10 01:17:44;;;;;;;22.80;20.42;;;;;;;2.22;57.38;99496.94;5009376;27;102983;-68
2022/03/10 01:20:17;;;;;;;25.50;21.48;;;;;;;1.95;58.03;99492.47;5015395;28;102586;-68
2022/03/10 01:22:47;;;;;;;20.63;18.48;;;;;;;2.14;57.82;99485.88;5015465;27;103927;-68
2022/03/10 01:25:18;;;;;;;25.85;21.80;;;;;;;2.02;57.70;99478.38;5017428;27;103015;-68
2022/03/10 01:27:47;;;;;;;22.02;19.58;;;;;;;2.07;57.76;99481.72;5015530;28;102724;-68
2022/03/10 01:30:17;;;;;;;23.80;20.42;;;;;;;1.87;57.63;99484.84;5016646;27;103055;-68
2022/03/10 01:32:46;;;;;;;22.17;19.80;;;;;;;2.05;57.83;99473.94;5015921;28;103476;-66
2022/03/10 01:35:15;;;;;;;25.37;22.17;;;;;;;1.22;59.82;99473.38;5016622;28;102841;-67
2022/03/10 01:37:47;;;;;;;26.00;20.83;;;;;;;1.52;59.33;99472.66;5014192;28;103124;-66
2022/03/10 01:40:17;;;;;;;18.90;16.90;;;;;;;2.09;58.41;99477.31;5015999;27;104328;-68
2022/03/10 01:42:47;;;;;;;24.05;20.77;;;;;;;2.02;57.11;99465.34;5015699;28;104059;-66
2022/03/10 01:45:15;;;;;;;22.70;20.27;;;;;;;1.65;59.77;99479.31;5016531;28;103304;-66
2022/03/10 01:47:44;;;;;;;19.60;17.60;;;;;;;1.97;58.42;99475.88;5013680;27;102577;-66
2022/03/10 01:50:14;;;;;;;19.23;17.23;;;;;;;2.26;57.66;99465.56;5016782;27;103841;-68
2022/03/10 01:52:44;;;;;;;17.55;15.60;;;;;;;2.40;56.72;99475.63;5012129;28;104796;-68
2022/03/10 01:55:14;;;;;;;24.95;21.75;;;;;;;1.70;58.39;99461.81;5013454;28;103268;-66
2022/03/10 01:57:43;;;;;;;22.13;19.85;;;;;;;2.01;58.50;99468.84;5016025;27;102656;-67
2022/03/10 02:00:14;;;;;;;22.30;19.07;;;;;;;2.28;57.34;99468.13;5012263;28;103546;-68
2022/03/10 02:02:42;;;;;;;26.35;21.42;;;;;;;1.66;59.26;99473.19;5008696;27;104051;-67
2022/03/10 02:05:10;;;;;;;22.63;20.23;;;;;;;1.90;58.42;99463.06;5011974;28;103724;-67
2022/03/10 02:10:27;;;;;;;24.08;20.42;;;;;;;1.67;59.21;99471.44;5007581;28;104133;-68
2022/03/10 02:12:56;;;;;;;25.95;22.02;;;;;;;1.05;60.96;99467.69;5013654;28;104010;-67
2022/03/10 02:18:15;;;;;;;27.17;22.63;;;;;;;1.10;61.98;99474.50;5009862;28;102669;-67
2022/03/10 02:20:46;;;;;;;24.42;21.67;;;;;;;1.37;61.15;99478.25;5013877;28;102762;-67
2022/03/10 02:23:17;;;;;;;24.60;21.33;;;;;;;1.33;60.98;99471.38;5015766;27;103678;-67
2022/03/10 02:25:46;;;;;;;23.60;21.02;;;;;;;1.32;60.94;99479.25;5014892;27;103225;-67
2022/03/10 02:28:17;;;;;;;23.73;21.23;;;;;;;1.14;61.50;99480.50;5014586;27;103083;-66
2022/03/10 02:30:45;;;;;;;26.17;22.42;;;;;;;0.54;63.74;99480.91;5009214;28;104493;-67
2022/03/10 02:33:13;;;;;;;25.03;21.70;;;;;;;0.83;63.42;99479.44;5010506;28;104457;-66
2022/03/10 02:35:41;;;;;;;24.02;20.63;;;;;;;1.27;61.32;99481.06;5013401;27;103279;-66
2022/03/10 02:38:08;;;;;;;24.92;21.42;;;;;;;1.19;61.65;99478.66;5014622;27;102563;-66
2022/03/10 02:40:38;;;;;;;23.67;20.42;;;;;;;1.48;60.47;99481.47;5011431;28;103613;-66
2022/03/10 02:43:06;;;;;;;19.50;17.52;;;;;;;1.79;59.86;99475.50;5015156;28;104517;-67
2022/03/10 02:45:33;;;;;;;25.05;21.67;;;;;;;1.54;59.44;99478.72;5015284;27;103173;-65
2022/03/10 02:48:02;;;;;;;25.77;21.70;;;;;;;1.42;60.60;99485.94;5015546;27;103050;-65
2022/03/10 02:50:30;;;;;;;24.73;22.05;;;;;;;0.87;62.23;99481.13;5012133;28;102806;-68
2022/03/10 02:52:58;;;;;;;24.20;20.53;;;;;;;1.24;62.17;99492.41;5013965;28;104246;-65
2022/03/10 02:55:29;;;;;;;23.33;20.83;;;;;;;1.12;61.64;99487.50;5014233;27;102982;-65
2022/03/10 02:57:58;;;;;;;24.95;21.80;;;;;;;0.97;61.98;99493.03;5009662;27;102637;-67
2022/03/10 03:00:26;;;;;;;27.15;22.30;;;;;;;-0.07;66.22;99508.91;5012441;27;104188;-65
2022/03/10 03:02:54;;;;;;;20.13;18.07;;;;;;;0.96;64.01;99501.72;5001765;28;104884;-67
2022/03/10 03:05:23;;;;;;;21.40;19.10;;;;;;;1.35;61.79;99503.44;5013478;28;104488;-65
2022/03/10 03:07:53;;;;;;;25.17;21.73;;;;;;;0.98;62.63;99503.38;5014061;28;102818;-67
2022/03/10 03:10:21;;;;;;;24.48;21.80;;;;;;;0.45;63.88;99504.47;5010471;28;103850;-67
2022/03/10 03:12:51;;;;;;;21.95;19.60;;;;;;;0.92;63.70;99505.28;5014404;27;103200;-67
2022/03/10 03:15:21;;;;;;;25.65;21.73;;;;;;;0.57;64.44;99504.25;5014925;27;103389;-66
2022/03/10 03:17:49;;;;;;;23.60;20.98;;;;;;;0.50;64.85;99501.81;5014314;28;102655;-65
2022/03/10 03:20:17;;;;;;;21.83;19.43;;;;;;;1.08;63.07;99504.91;5013504;27;103873;-67
2022/03/10 03:22:47;;;;;;;18.60;16.70;;;;;;;1.38;61.88;99510.31;5013826;27;103977;-68
2022/03/10 03:25:16;;;;;;;24.13;21.15;;;;;;;1.02;61.61;99512.00;5010707;27;104770;-65
2022/03/10 03:27:47;;;;;;;24.47;21.93;;;;;;;0.18;65.75;99515.38;5015291;28;102854;-65
2022/03/10 03:30:16;;;;;;;24.20;21.52;;;;;;;0.35;65.52;99507.28;5010762;28;102600;-65
2022/03/10 03:32:46;;;;;;;21.33;18.60;;;;;;;0.89;64.42;99510.56;5015478;27;103149;-67
2022/03/10 03:35:15;;;;;;;21.30;19.00;;;;;;;1.05;63.18;99506.72;5011455;28;104383;-65
2022/03/10 03:37:43;;;;;;;22.83;20.23;;;;;;;1.29;61.95;99516.63;5014624;28;102806;-65
2022/03/10 03:40:12;;;;;;;24.17;21.55;;;;;;;0.79;64.11;99514.22;5011474;27;102783;-65
2022/03/10 03:42:40;;;;;;;22.90;20.40;;;;;;;0.97;63.85;99513.84;5014222;27;103247;-67
2022/03/10 03:45:10;;;;;;;25.90;23.03;;;;;;;0.11;66.70;99513.81;5012266;28;103262;-67
2022/03/10 03:47:39;;;;;;;25.47;22.17;;;;;;;0.24;67.63;99520.47;5008051;28;102858;-67
2022/03/10 03:50:09;;;;;;;25.98;22.10;;;;;;;0.71;65.94;99518.72;5012961;28;103755;-67
2022/03/10 03:52:37;;;;;;;20.33;18.15;;;;;;;1.20;63.96;99519.41;5012837;28;103818;-68
2022/03/10 03:55:08;;;;;;;25.20;22.50;;;;;;;1.09;63.32;99513.59;5014411;28;103392;-65
2022/03/10 03:57:36;;;;;;;19.40;17.42;;;;;;;1.34;63.18;99524.31;5013034;28;102735;-65
2022/03/10 04:00:05;;;;;;;20.58;18.42;;;;;;;1.52;61.64;99534.31;5011101;27;103717;-65
2022/03/10 04:02:36;;;;;;;23.75;20.80;;;;;;;1.12;61.57;99526.53;5013953;28;103223;-65
2022/03/10 04:05:05;;;;;;;25.58;22.27;;;;;;;0.80;63.12;99528.94;5010991;28;103438;-65
2022/03/10 04:07:35;;;;;;;23.30;20.67;;;;;;;0.77;64.05;99529.84;5013969;28;102865;-65
2022/03/10 04:10:04;;;;;;;25.35;21.48;;;;;;;1.07;62.87;99536.16;5011147;27;103649;-65
2022/03/10 04:12:32;;;;;;;27.67;23.33;;;;;;;0.37;65.96;99537.56;5010832;28;104333;-67
2022/03/10 04:15:00;;;;;;;27.70;24.60;;;;;;;0.21;67.17;99535.25;5014098;27;102872;-67
2022/03/10 04:17:28;;;;;;;27.25;24.33;;;;;;;0.04;69.49;99542.50;5013012;28;102901;-65
2022/03/10 04:19:56;;;;;;;28.83;23.55;;;;;;;0.35;68.06;99538.47;5013726;28;102807;-67
2022/03/10 04:22:24;;;;;;;27.15;23.55;;;;;;;0.71;67.20;99536.91;5014104;27;103899;-67
2022/03/10 04:24:56;;;;;;;21.60;19.33;;;;;;;1.09;65.51;99534.41;5010087;27;104529;-65
2022/03/10 04:27:24;;;;;;;31.37;24.67;;;;;;;-0.02;68.66;99533.06;5006447;28;102735;-67
2022/03/10 04:29:52;;;;;;;27.75;24.55;;;;;;;0.42;68.48;99535.72;5013495;27;102819;-65
2022/03/10 04:32:23;;;;;;;29.17;24.92;;;;;;;0.14;68.20;99536.28;5013807;27;104092;-65
2022/03/10 04:34:51;;;;;;;28.00;24.42;;;;;;;0.29;68.85;99536.84;5013583;27;103360;-65
2022/03/10 04:37:19;;;;;;;28.77;23.33;;;;;;;0.51;67.02;99535.56;5013677;27;102613;-67
2022/03/10 04:39:47;;;;;;;22.20;19.80;;;;;;;1.00;65.35;99534.59;5007723;27;103515;-67
2022/03/10 04:42:16;;;;;;;22.60;20.17;;;;;;;1.12;63.98;99537.78;5012380;27;102915;-65
2022/03/10 04:44:44;;;;;;;21.88;18.80;;;;;;;1.27;62.67;99533.13;5010723;28;103367;-65
2022/03/10 04:47:12;;;;;;;20.65;18.08;;;;;;;1.32;61.99;99526.94;5013069;27;102967;-68
2022/03/10 04:49:40;;;;;;;23.58;21.00;;;;;;;1.21;62.40;99534.13;5014480;28;103032;-67
2022/03/10 04:52:08;;;;;;;25.85;21.80;;;;;;;0.99;62.43;99528.53;5013060;27;104103;-68
2022/03/10 04:54:36;;;;;;;29.20;23.63;;;;;;;0.61;66.01;99527.59;5003273;28;102991;-68
2022/03/10 04:57:04;;;;;;;26.48;23.55;;;;;;;0.20;67.14;99529.19;5011152;28;102882;-68
2022/03/10 04:59:34;;;;;;;28.08;24.75;;;;;;;0.01;68.26;99533.00;5013315;27;103986;-68
2022/03/10 05:02:02;;;;;;;29.02;23.73;;;;;;;0.33;67.49;99528.13;5007133;28;103644;-68
2022/03/10 05:04:32;;;;;;;29.77;24.13;;;;;;;-0.06;68.58;99521.84;5009980;27;103214;-68
2022/03/10 05:07:00;;;;;;;32.00;26.00;;;;;;;0.10;69.53;99525.06;5012853;27;102540;-68
2022/03/10 05:09:28;;;;;;;29.98;25.48;;;;;;;0.10;70.39;99524.19;5010071;28;103611;-68
2022/03/10 05:11:55;;;;;;;29.17;24.35;;;;;;;-0.21;70.88;99526.44;5008889;28;104199;-68
2022/03/10 05:14:24;;;;;;;28.50;24.97;;;;;;;-0.26;72.26;99523.06;5013773;27;103209;-67
2022/03/10 05:16:57;;;;;;;30.23;25.17;;;;;;;-0.59;72.80;99520.09;5012888;27;102798;-67
2022/03/10 05:19:25;;;;;;;31.42;25.65;;;;;;;-0.64;73.24;99515.84;5013332;28;102803;-68
2022/03/10 05:21:53;;;;;;;31.95;24.65;;;;;;;-0.80;73.54;99510.03;5011409;27;103289;-67
2022/03/10 05:24:21;;;;;;;29.45;25.90;;;;;;;-0.74;73.16;99509.97;5010691;28;103238;-67
2022/03/10 05:26:49;;;;;;;29.50;24.65;;;;;;;-0.39;72.31;99511.19;5010422;28;103016;-67
2022/03/10 05:29:17;;;;;;;29.17;25.10;;;;;;;-0.40;71.92;99514.66;5004113;28;103971;-67
2022/03/10 05:31:51;;;;;;;30.37;24.83;;;;;;;-0.18;71.65;99510.81;5012443;27;103840;-68
2022/03/10 05:34:20;;;;;;;31.17;24.70;;;;;;;-0.12;71.52;99515.94;5013104;28;103281;-67
2022/03/10 05:36:48;;;;;;;28.80;25.08;;;;;;;-0.22;71.26;99514.34;5011442;27;103864;-67
2022/03/10 05:39:16;;;;;;;27.85;23.73;;;;;;;0.31;69.69;99518.63;5007704;28;104134;-67
2022/03/10 05:41:44;;;;;;;28.48;23.40;;;;;;;0.30;69.68;99520.38;5011853;27;103646;-67
2022/03/10 05:44:12;;;;;;;31.50;24.90;;;;;;;-0.22;71.36;99515.19;5009351;28;103239;-68
2022/03/10 05:46:43;;;;;;;31.10;25.80;;;;;;;-0.09;71.26;99518.47;5006350;28;103919;-68
2022/03/10 05:49:13;;;;;;;29.57;25.60;;;;;;;-0.06;71.18;99526.22;5009833;27;104079;-68
2022/03/10 05:51:45;;;;;;;31.00;25.55;;;;;;;0.00;70.51;99531.31;5013766;28;104030;-65
2022/03/10 05:54:16;;;;;;;29.85;25.52;;;;;;;-0.08;70.93;99528.81;5015167;27;104097;-65
2022/03/10 05:56:46;;;;;;;29.25;26.02;;;;;;;-0.24;71.54;99527.38;5015412;27;102948;-64
2022/03/10 05:59:14;;;;;;;29.73;24.45;;;;;;;0.24;70.28;99530.88;5011075;28;103285;-64
2022/03/10 06:01:44;;;;;;;28.58;24.55;;;;;;;0.27;69.98;99536.03;5009200;28;103890;-64
2022/03/10 06:04:12;;;;;;;32.83;26.08;;;;;;;-0.16;70.90;99532.44;5017094;28;103163;-66
2022/03/10 06:06:43;;;;;;;28.13;24.48;;;;;;;0.11;70.45;99529.38;5016884;28;102856;-68
2022/03/10 06:09:12;;;;;;;28.93;24.37;;;;;;;0.46;68.75;99542.59;5016023;27;102749;-68
2022/03/10 06:11:41;;;;;;;26.63;23.60;;;;;;;0.60;68.20;99539.72;5012339;28;104342;-67
2022/03/10 06:14:10;;;;;;;29.48;24.08;;;;;;;0.82;67.07;99529.75;5013867;28;103694;-68
2022/03/10 06:16:40;;;;;;;26.77;23.45;;;;;;;1.20;65.70;99532.44;5016366;27;102666;-67
2022/03/10 06:19:09;;;;;;;23.40;20.97;;;;;;;1.45;64.43;99531.00;5014278;28;102639;-68
2022/03/10 06:21:37;;;;;;;29.03;24.73;;;;;;;1.02;65.01;99528.47;5011999;27;103234;-67
2022/03/10 06:24:08;;;;;;;29.92;25.38;;;;;;;0.76;65.89;99533.34;5009361;28;104111;-67
2022/03/10 06:26:37;;;;;;;30.40;25.60;;;;;;;0.63;66.98;99538.81;5011219;28;102722;-68
2022/03/10 06:29:05;;;;;;;31.33;25.90;;;;;;;0.57;67.84;99535.44;5015106;27;103040;-64
2022/03/10 06:31:35;;;;;;;30.90;25.70;;;;;;;0.71;67.56;99531.72;4988165;27;103091;-68
2022/03/10 06:34:03;;;;;;;26.55;23.50;;;;;;;1.00;67.10;99535.47;5002239;28;103212;-64
2022/03/10 06:36:31;;;;;;;31.58;24.58;;;;;;;1.07;65.99;99534.44;5006302;27;102905;-64
2022/03/10 06:38:59;;;;;;;32.90;26.00;;;;;;;0.80;66.52;99534.13;5012048;28;104216;-64
2022/03/10 06:41:27;;;;;;;31.97;25.60;;;;;;;0.95;66.25;99541.66;5010540;28;104188;-65
2022/03/10 06:43:56;;;;;;;29.63;24.48;;;;;;;1.06;65.56;99544.88;5014434;27;103209;-64
2022/03/10 06:46:24;;;;;;;22.77;20.37;;;;;;;1.87;63.69;99542.16;5012741;27;102992;-67
2022/03/10 06:48:52;;;;;;;26.55;22.67;;;;;;;2.21;62.19;99531.78;5012848;28;103730;-69
2022/03/10 06:51:20;;;;;;;26.60;22.95;;;;;;;2.33;60.79;99542.72;5011118;28;103911;-69
2022/03/10 06:53:48;;;;;;;22.40;20.00;;;;;;;2.56;60.12;99544.72;5012312;28;103182;-69
2022/03/10 06:56:17;;;;;;;29.53;25.03;;;;;;;2.47;59.85;99544.13;5015781;28;102620;-69
2022/03/10 06:58:45;;;;;;;24.20;21.53;;;;;;;2.74;59.86;99548.59;5015536;27;103988;-69
2022/03/10 07:01:14;;;;;;;23.85;21.13;;;;;;;2.95;58.59;99541.94;5013082;27;104530;-69
2022/03/10 07:03:43;;;;;;;21.15;18.98;;;;;;;3.12;58.33;99543.16;5013208;27;103490;-69
2022/03/10 07:06:11;;;;;;;23.40;20.88;;;;;;;3.10;57.85;99542.34;5015887;28;102697;-70
2022/03/10 07:08:39;;;;;;;24.40;20.33;;;;;;;3.37;57.39;99546.75;5015320;27;103268;-70
2022/03/10 07:11:07;;;;;;;21.75;19.52;;;;;;;3.59;56.45;99544.34;5012829;27;103935;-70
2022/03/10 07:13:37;;;;;;;21.00;18.80;;;;;;;3.79;56.09;99549.78;5007718;28;103601;-69
2022/03/10 07:16:06;;;;;;;23.70;21.20;;;;;;;3.90;55.57;99552.91;5010822;28;102736;-70
2022/03/10 07:18:35;;;;;;;24.33;21.73;;;;;;;3.67;56.47;99559.78;5014119;28;102656;-70
2022/03/10 07:21:05;;;;;;;27.38;24.30;;;;;;;3.35;56.49;99555.53;5013866;28;104220;-70
2022/03/10 07:23:33;;;;;;;25.05;21.90;;;;;;;4.03;55.99;99559.47;5014377;28;102962;-69
2022/03/10 07:26:01;;;;;;;22.73;20.33;;;;;;;4.36;54.69;99567.09;5010167;28;102889;-70
2022/03/10 07:28:29;;;;;;;26.35;23.30;;;;;;;4.36;54.78;99564.50;5016390;28;102895;-69
2022/03/10 07:30:57;;;;;;;24.77;21.50;;;;;;;4.45;54.80;99569.41;5011877;28;104212;-69
2022/03/10 07:33:25;;;;;;;24.45;21.60;;;;;;;5.00;53.61;99563.94;5015716;28;103522;-70
2022/03/10 07:35:55;;;;;;;24.87;22.20;;;;;;;5.24;52.56;99557.84;5010652;27;103023;-69
2022/03/10 07:38:23;;;;;;;25.60;22.35;;;;;;;5.59;51.75;99571.34;5013473;28;104073;-69
2022/03/10 07:40:51;;;;;;;25.85;22.20;;;;;;;5.76;52.13;99574.16;5013663;28;104324;-69
2022/03/10 07:43:19;;;;;;;28.00;23.80;;;;;;;5.38;52.20;99564.31;5012046;27;104740;-71
2022/03/10 07:45:47;;;;;;;29.45;24.75;;;;;;;5.29;52.91;99573.38;5015698;27;103171;-69
2022/03/10 07:48:15;;;;;;;27.70;23.23;;;;;;;5.99;52.47;99570.69;5014556;27;103592;-70
2022/03/10 07:50:43;;;;;;;26.80;23.90;;;;;;;5.92;51.31;99577.97;5014290;27;104019;-67
2022/03/10 07:53:12;;;;;;;26.87;23.77;;;;;;;6.05;51.33;99576.53;5012383;28;103803;-65
2022/03/10 07:55:41;;;;;;;31.92;25.08;;;;;;;6.37;50.06;99568.19;5007458;27;103127;-64
2022/03/10 07:58:09;;;;;;;26.00;22.02;;;;;;;7.19;49.89;99569.88;5013967;27;104077;-65
2022/03/10 08:00:37;;;;;;;26.30;22.47;;;;;;;7.89;48.56;99556.94;5010841;28;104200;-68
2022/03/10 08:03:06;;;;;;;27.65;24.15;;;;;;;7.32;48.38;99555.28;5014591;28;103438;-68
2022/03/10 08:05:35;;;;;;;26.57;22.93;;;;;;;8.07;49.01;99555.19;5010273;28;102885;-68
2022/03/10 08:08:03;;;;;;;31.48;24.75;;;;;;;7.41;47.80;99549.56;5008873;28;103463;-68
2022/03/10 08:10:32;;;;;;;29.27;24.40;;;;;;;7.99;48.06;99555.59;5010781;28;103297;-68
2022/03/10 08:13:00;;;;;;;27.38;23.75;;;;;;;7.32;47.79;99555.28;5004127;27;102775;-69
2022/03/10 08:15:31;;;;;;;24.27;21.70;;;;;;;8.65;46.43;99551.41;5007148;27;102841;-65
2022/03/10 08:17:59;;;;;;;27.38;24.38;;;;;;;8.54;45.57;99558.13;5012110;28;103576;-65
2022/03/10 08:20:27;;;;;;;31.37;24.03;;;;;;;8.50;45.21;99564.50;5007583;28;103859;-65
2022/03/10 08:22:55;;;;;;;28.80;23.67;;;;;;;8.16;46.72;99558.25;5007999;28;103277;-63
2022/03/10 08:25:23;;;;;;;28.45;24.35;;;;;;;9.20;45.21;99559.06;5010060;28;103458;-63
2022/03/10 08:27:56;;;;;;;28.77;23.13;;;;;;;8.34;44.66;99559.13;5012160;28;103960;-63
2022/03/10 08:30:24;;;;;;;25.02;22.27;;;;;;;9.71;44.75;99550.94;5013219;28;103868;-64
2022/03/10 08:32:52;;;;;;;28.40;23.83;;;;;;;9.68;42.91;99553.78;5013497;27;103341;-64
2022/03/10 08:35:20;;;;;;;27.10;24.20;;;;;;;9.12;42.94;99540.19;5015414;27;102990;-65
2022/03/10 08:37:48;;;;;;;28.23;23.45;;;;;;;9.32;44.18;99534.66;5013756;27;103731;-65
2022/03/10 08:40:19;;;;;;;26.88;22.95;;;;;;;10.35;43.61;99528.84;5007671;28;103315;-65
2022/03/10 08:42:49;;;;;;;29.30;22.90;;;;;;;10.35;42.92;99535.00;5009310;28;104339;-64
2022/03/10 08:45:20;;;;;;;24.35;21.75;;;;;;;11.04;42.74;99523.78;5004639;28;102667;-68
2022/03/10 08:47:51;;;;;;;23.33;20.87;;;;;;;11.17;40.74;99515.97;5010349;28;103675;-65
2022/03/10 08:50:22;;;;;;;20.97;18.80;;;;;;;11.87;39.69;99509.72;4998896;28;104196;-65
2022/03/10 08:52:53;;;;;;;21.90;19.48;;;;;;;11.86;39.40;99516.81;5007125;28;103572;-65
2022/03/10 08:55:21;;;;;;;19.60;17.53;;;;;;;12.44;38.03;99505.03;5013664;27;102661;-65
2022/03/10 08:57:49;;;;;;;21.20;18.85;;;;;;;12.43;38.47;99511.28;5013518;27;102788;-65
2022/03/10 09:00:19;;;;;;;18.85;16.85;;;;;;;11.94;38.57;99517.16;5003696;28;103384;-69
2022/03/10 09:02:52;;;;;;;20.95;18.75;;;;;;;11.54;40.61;99510.03;5012327;28;103211;-69
2022/03/10 09:05:21;;;;;;;20.37;18.37;;;;;;;12.06;39.57;99510.22;5006986;28;103045;-68
2022/03/10 09:07:49;;;;;;;23.23;19.63;;;;;;;12.65;38.28;99498.28;5011050;28;104395;-68
2022/03/10 09:10:17;;;;;;;20.42;18.23;;;;;;;12.50;39.03;99500.16;5009614;28;104083;-65
2022/03/10 09:12:45;;;;;;;20.77;18.17;;;;;;;12.82;37.92;99502.44;5009456;28;103403;-65
2022/03/10 09:15:17;;;;;;;20.85;18.75;;;;;;;13.18;37.34;99495.44;5003311;28;103051;-69
2022/03/10 09:17:46;;;;;;;18.95;17.23;;;;;;;13.65;36.54;99501.81;5013103;27;103966;-65
2022/03/10 09:20:15;;;;;;;20.13;18.03;;;;;;;12.61;37.27;99491.47;5011660;28;103977;-68
2022/03/10 09:22:43;;;;;;;19.55;17.52;;;;;;;13.83;36.98;99480.09;5010294;27;103185;-69
2022/03/10 09:25:12;;;;;;;19.93;17.10;;;;;;;14.34;35.13;99475.38;5008344;28;102677;-66
2022/03/10 09:27:41;;;;;;;19.42;17.40;;;;;;;14.29;36.48;99481.97;5013674;28;103767;-65
2022/03/10 09:30:11;;;;;;;21.75;18.40;;;;;;;14.19;36.13;99479.19;5011638;28;104059;-65
2022/03/10 09:32:41;;;;;;;20.58;17.38;;;;;;;12.46;36.98;99477.47;5017019;28;103180;-65
2022/03/10 09:35:13;;;;;;;19.33;17.33;;;;;;;13.54;36.96;99476.03;5005962;28;103224;-69
2022/03/10 09:37:41;;;;;;;20.08;17.92;;;;;;;12.55;36.67;99473.34;5014289;28;103733;-69
2022/03/10 09:40:10;;;;;;;18.43;16.30;;;;;;;13.75;36.51;99471.00;5012820;27;103702;-69
2022/03/10 09:42:39;;;;;;;16.70;15.10;;;;;;;14.13;36.60;99470.81;5012687;28;104176;-70
2022/03/10 09:45:09;;;;;;;16.88;15.07;;;;;;;14.85;35.27;99473.22;5011880;28;102774;-70
2022/03/10 09:47:39;;;;;;;16.73;15.02;;;;;;;14.47;35.85;99470.00;5013005;28;104300;-70
2022/03/10 09:50:10;;;;;;;16.60;13.40;;;;;;;15.12;35.10;99464.91;5010262;27;104567;-66
2022/03/10 09:52:40;;;;;;;15.90;13.48;;;;;;;14.84;35.57;99457.38;5009398;28;104173;-67
2022/03/10 09:55:10;;;;;;;13.20;11.90;;;;;;;15.52;34.22;99452.78;5014215;28;102554;-70
2022/03/10 09:57:42;;;;;;;13.25;11.85;;;;;;;15.88;33.77;99458.75;5009077;28;103720;-66
2022/03/10 10:00:12;;;;;;;13.25;11.80;;;;;;;15.29;36.14;99464.41;5015303;27;103307;-70
2022/03/10 10:02:41;;;;;;;13.20;10.57;;;;;;;14.06;35.57;99459.81;5012215;28;103394;-66
2022/03/10 10:05:23;;;;;;;10.75;9.85;;;;;;;15.19;34.89;99458.09;5011507;28;102749;-68
2022/03/10 10:08:08;;;;;;;10.57;9.30;;;;;;;14.99;34.64;99450.84;5006948;28;102677;-70
2022/03/10 10:10:39;;;;;;;11.45;9.60;;;;;;;15.18;34.62;99450.25;5008277;28;103241;-66
2022/03/10 10:13:25;;;;;;;10.43;9.27;;;;;;;15.39;34.30;99438.72;5015930;28;104173;-70
2022/03/10 10:15:56;;;;;;;10.05;9.02;;;;;;;14.69;34.24;99446.09;5010484;28;102616;-66
2022/03/10 10:18:25;;;;;;;10.40;9.40;;;;;;;14.91;34.56;99442.63;5016412;28;103753;-70
2022/03/10 10:21:12;;;;;;;11.10;9.50;;;;;;;15.11;33.46;99428.59;5011470;28;104317;-67
2022/03/10 10:23:42;;;;;;;10.00;9.00;;;;;;;15.71;33.68;99422.00;5016526;28;103204;-70
2022/03/10 10:26:11;;;;;;;9.95;9.00;;;;;;;15.51;33.85;99427.13;5007677;28;102801;-70
2022/03/10 10:28:49;;;;;;;8.63;7.78;;;;;;;15.06;34.29;99422.78;5006485;28;102990;-70
2022/03/10 10:31:18;;;;;;;8.50;7.75;;;;;;;15.33;33.56;99417.06;5008668;28;103047;-67
2022/03/10 10:33:58;;;;;;;9.57;7.95;;;;;;;15.76;34.16;99414.47;5006401;28;103407;-66
2022/03/10 10:36:28;;;;;;;8.93;8.02;;;;;;;16.06;33.03;99406.59;5013028;28;102647;-66
2022/03/10 10:38:58;;;;;;;10.00;7.57;;;;;;;15.96;33.48;99398.53;5010676;28;103925;-67
2022/03/10 10:41:29;;;;;;;8.33;7.53;;;;;;;15.96;33.75;99392.34;5010248;28;104246;-67
2022/03/10 10:44:01;;;;;;;7.90;7.20;;;;;;;15.91;32.50;99392.75;5013578;28;103220;-70
2022/03/10 10:46:32;;;;;;;8.40;7.50;;;;;;;16.32;32.59;99386.59;5005352;28;102738;-67
2022/03/10 10:49:03;;;;;;;7.53;6.72;;;;;;;16.37;32.06;99387.03;5011536;28;103942;-66
2022/03/10 10:51:36;;;;;;;6.80;6.20;;;;;;;16.04;31.43;99381.88;5010651;28;105585;-70
2022/03/10 10:54:08;;;;;;;6.57;5.88;;;;;;;16.05;30.77;99383.59;5010511;28;103195;-67
2022/03/10 10:56:45;;;;;;;5.60;4.70;;;;;;;16.31;30.71;99382.22;5008779;28;103607;-66
2022/03/10 10:59:27;;;;;;;4.75;4.30;;;;;;;16.29;30.29;99370.84;5010989;28;102592;-66
2022/03/10 11:02:09;;;;;;;5.00;4.50;;;;;;;16.80;29.95;99376.22;5014912;28;103277;-70
2022/03/10 11:04:39;;;;;;;6.40;5.70;;;;;;;16.74;30.61;99379.41;5009304;28;103400;-67
2022/03/10 11:07:09;;;;;;;7.05;6.35;;;;;;;16.06;31.07;99371.94;5010230;27;102624;-70
2022/03/10 11:09:40;;;;;;;7.00;5.93;;;;;;;16.97;30.00;99364.06;5011885;28;103757;-70
2022/03/10 11:12:10;;;;;;;5.15;4.65;;;;;;;15.95;30.88;99364.00;5013572;27;102713;-70
2022/03/10 11:14:41;;;;;;;3.67;3.33;;;;;;;16.19;29.71;99360.13;5009693;27;103194;-70
2022/03/10 11:17:10;;;;;;;3.70;3.40;;;;;;;16.03;29.58;99359.72;5001383;28;102951;-71
2022/03/10 11:19:39;;;;;;;3.78;3.40;;;;;;;16.52;29.07;99356.41;5013128;28;103993;-70
2022/03/10 11:22:14;;;;;;;4.10;3.70;;;;;;;16.78;28.55;99352.34;5015660;27;103948;-67
2022/03/10 11:25:10;;;;;;;3.45;3.15;;;;;;;17.40;28.72;99351.25;5010604;28;104217;-66
2022/03/10 11:27:43;;;;;;;3.83;2.92;;;;;;;17.70;27.77;99343.16;4998339;28;102700;-67
2022/03/10 11:30:12;;;;;;;3.53;3.22;;;;;;;16.87;28.25;99341.84;5007607;28;104194;-71
2022/03/10 11:32:40;;;;;;;4.15;3.42;;;;;;;17.03;28.09;99340.34;5004804;28;104016;-70